ADDS METAR Data INFO
IDs: Format: Raw Decoded Include TAF

Data at: 1009 UTC 14 Dec 2017

KMDD 140955Z AUTO 00000KT 10SM CLR 00/M03 A2994 RMK AO2 T00011035
KMDD 140935Z AUTO 30003KT 10SM CLR 01/M03 A2993 RMK AO2 T00081031
KMDD 140915Z AUTO 34003KT 10SM CLR 02/M03 A2993 RMK AO2 T00201030
KMDD 140855Z AUTO 00000KT 10SM CLR 01/M03 A2993 RMK AO2 T00141026
KMDD 140835Z AUTO 28003KT 10SM CLR 02/M02 A2993 RMK AO2 T00181022
KMDD 140815Z AUTO 00000KT 10SM CLR 03/M01 A2993 RMK AO2 T00271011
KMDD 140755Z AUTO 00000KT 10SM CLR 04/M01 A2992 RMK AO2 T00351011
KMDD 140735Z AUTO 00000KT 10SM CLR 03/M01 A2993 RMK AO2 T00311011
KMDD 140715Z AUTO 00000KT 10SM CLR 05/M01 A2993 RMK AO2 T00451007
KMDD 140655Z AUTO 00000KT 10SM CLR 05/M01 A2993 RMK AO2 T00481006
KMDD 140635Z AUTO 00000KT 10SM CLR 05/00 A2994 RMK AO2 T00511005
KMDD 140615Z AUTO 00000KT 10SM CLR 05/M01 A2993 RMK AO2 T00481006
KMDD 140555Z AUTO 33003KT 10SM CLR 05/00 A2993 RMK AO2 T00481005 10163 20047 402050007
KMDD 140535Z AUTO 32004KT 10SM CLR 05/00 A2994 RMK AO2 T00521005
KMDD 140515Z AUTO 34004KT 10SM CLR 06/00 A2994 RMK AO2 T00591005
KMDD 140455Z AUTO 23004KT 10SM CLR 09/00 A2994 RMK AO2 T00931005
KMDD 140435Z AUTO 00000KT 10SM CLR 10/M01 A2994 RMK AO2 T01001006
KMDD 140415Z AUTO 00000KT 10SM CLR 10/00 A2994 RMK AO2 T00971003
KMDD 140355Z AUTO 20006KT 10SM CLR 09/00 A2994 RMK AO2 T00911003
KMDD 140330Z AUTO 18004KT 10SM CLR 10/M01 A2993 RMK AO2 T01031012
KMDD 140315Z AUTO 00000KT 10SM CLR 11/M01 A2993 RMK AO2 T01081011
KMDD 140255Z AUTO 18003KT 10SM CLR 11/M01 A2994 RMK AO2 T01101011
KMDD 140235Z AUTO 21004KT 10SM CLR 13/M01 A2994 RMK AO2 T01251014
KMDD 140215Z AUTO 21005KT 10SM CLR 13/M01 A2994 RMK AO2 T01271012
KMDD 140155Z AUTO 20006KT 10SM CLR 13/M01 A2994 RMK AO2 T01301011
KMDD 140135Z AUTO 21005KT 10SM CLR 13/M01 A2994 RMK AO2 T01321009
KMDD 140115Z AUTO 22004KT 10SM CLR 14/M01 A2994 RMK AO2 T01411010
KMDD 140055Z AUTO 22004KT 10SM CLR 14/M01 A2994 RMK AO2 T01431011
KMDD 140035Z AUTO 21005KT 10SM CLR 15/M01 A2994 RMK AO2 T01511013
KMDD 140015Z AUTO 23003KT 10SM CLR 16/M02 A2993 RMK AO2 T01601017
KMDD 132355Z AUTO 25005KT 10SM CLR 16/M02 A2994 RMK AO2 T01641017 10205 20163
KMDD 132335Z AUTO 25006KT 10SM CLR 18/M02 A2994 RMK AO2 T01771020
KMDD 132315Z AUTO 25006KT 10SM CLR 19/M02 A2994 RMK AO2 T01881025
KMDD 132255Z AUTO 24009KT 10SM CLR 19/M03 A2994 RMK AO2 T01931026
KMDD 132235Z AUTO 23011KT 10SM CLR 20/M03 A2995 RMK AO2 T01981033
KMDD 132215Z AUTO 23012KT 10SM CLR 20/M04 A2994 RMK AO2 T02011036
KMDD 132155Z AUTO 25011G15KT 10SM CLR 20/M04 A2994 RMK AO2 T02031038
KMDD 132135Z AUTO 24010G16KT 10SM CLR 20/M04 A2995 RMK AO2 T02031038
KMDD 132115Z AUTO 24011G17KT 10SM CLR 20/M04 A2996 RMK AO2 T02041037
KMDD 132055Z AUTO 23010G17KT 10SM CLR 20/M04 A2996 RMK AO2 T02021037
KMDD 132035Z AUTO 23012KT 10SM CLR 20/M04 A2997 RMK AO2 T01981038
KMDD 132015Z AUTO 23012G16KT 10SM CLR 20/M04 A2998 RMK AO2 T01981037
KMDD 131955Z AUTO 24011G18KT 10SM CLR 19/M04 A3000 RMK AO2 T01941039
KMDD 131935Z AUTO 23012G18KT 10SM CLR 19/M04 A3001 RMK AO2 T01881044
KMDD 131915Z AUTO 26008KT 10SM CLR 18/M04 A3002 RMK AO2 T01801045
KMDD 131855Z AUTO 25013G17KT 10SM CLR 18/M04 A3004 RMK AO2 T01761044
KMDD 131835Z AUTO 23011G17KT 10SM CLR 17/M04 A3006 RMK AO2 T01711044
KMDD 131815Z AUTO 23013G17KT 10SM CLR 17/M04 A3007 RMK AO2 T01701044
KMDD 131755Z AUTO 25013KT 10SM CLR 16/M05 A3009 RMK AO2 T01621049 10162 20019
KMDD 131735Z AUTO 24013G18KT 10SM CLR 16/M05 A3010 RMK AO2 T01551050
KMDD 131715Z AUTO 24013KT 10SM CLR 15/M05 A3012 RMK AO2 T01461049
KMDD 131655Z AUTO 25007KT 10SM CLR 13/M04 A3012 RMK AO2 T01341042
KMDD 131635Z AUTO 23008KT 10SM CLR 12/M04 A3012 RMK AO2 T01241044
KMDD 131615Z AUTO 23010G16KT 10SM CLR 11/M05 A3012 RMK AO2 T01141047
KMDD 131555Z AUTO 22010G14KT 10SM CLR 10/M04 A3012 RMK AO2 T01021038
KMDD 131535Z AUTO 22006KT 10SM CLR 09/M03 A3012 RMK AO2 T00891035
KMDD 131515Z AUTO 23007KT 10SM CLR 08/M04 A3012 RMK AO2 T00781039
KMDD 131455Z AUTO 21009KT 10SM CLR 07/M04 A3012 RMK AO2 T00691042
KMDD 131435Z AUTO 23006KT 10SM CLR 06/M04 A3012 RMK AO2 T00601040
KMDD 131415Z AUTO 21007KT 10SM CLR 05/M04 A3010 RMK AO2 T00521040
KMDD 131355Z AUTO 21007KT 10SM CLR 05/M04 A3010 RMK AO2 T00481042
KMDD 131335Z AUTO 22005KT 10SM CLR 05/M04 A3011 RMK AO2 T00501041
KMDD 131315Z AUTO 22006KT 10SM CLR 05/M04 A3011 RMK AO2 T00461044
KMDD 131255Z AUTO 23003KT 10SM CLR 04/M04 A3010 RMK AO2 T00351045
KMDD 131235Z AUTO 23004KT 10SM CLR 02/M05 A3010 RMK AO2 T00231048
KMDD 131215Z AUTO 22004KT 10SM CLR 03/M05 A3011 RMK AO2 T00261049
KMDD 131155Z AUTO 24003KT 10SM CLR 02/M05 A3012 RMK AO2 T00191048 10036 20007
KMDD 131135Z AUTO 00000KT 10SM CLR 01/M05 A3012 RMK AO2 T00101048
KMDD 131115Z AUTO 22003KT 10SM CLR 02/M05 A3013 RMK AO2 T00151048
KMDD 131055Z AUTO 26003KT 10SM CLR 01/M04 A3014 RMK AO2 T00111045
KMDD 131035Z AUTO 27003KT 10SM CLR 01/M05 A3014 RMK AO2 T00081048
KMDD 131015Z AUTO 25004KT 10SM CLR 01/M05 A3014 RMK AO2 T00121050
KMDD 130955Z AUTO 27004KT 10SM CLR 02/M05 A3015 RMK AO2 T00161048
KMDD 130935Z AUTO 28005KT 10SM CLR 01/M05 A3015 RMK AO2 T00111048
KMDD 130915Z AUTO 27005KT 10SM CLR 01/M05 A3016 RMK AO2 T00121046
KMDD 130855Z AUTO 24005KT 10SM CLR 02/M05 A3017 RMK AO2 T00151046
KMDD 130835Z AUTO 27003KT 10SM CLR 02/M05 A3017 RMK AO2 T00151047
KMDD 130815Z AUTO 26004KT 10SM CLR 02/M05 A3018 RMK AO2 T00181047
KMDD 130755Z AUTO 27004KT 10SM CLR 02/M05 A3019 RMK AO2 T00211047
KMDD 130735Z AUTO 00000KT 10SM CLR 03/M05 A3019 RMK AO2 T00271048
KMDD 130715Z AUTO 26004KT 10SM CLR 03/M05 A3020 RMK AO2 T00261050
KMDD 130655Z AUTO 25004KT 10SM CLR 03/M05 A3021 RMK AO2 T00301051
KMDD 130635Z AUTO 25005KT 10SM CLR 03/M05 A3022 RMK AO2 T00271050
KMDD 130615Z AUTO 26005KT 10SM CLR 03/M05 A3023 RMK AO2 T00331051
KMDD 130555Z AUTO 24004KT 10SM CLR 04/M05 A3024 RMK AO2 T00351051 10129 20035 401510002
KMDD 130535Z AUTO 25005KT 10SM CLR 04/M05 A3024 RMK AO2 T00381052
KMDD 130515Z AUTO 25003KT 10SM CLR 05/M06 A3025 RMK AO2 T00461057
KMDD 130455Z AUTO 00000KT 10SM CLR 05/M06 A3026 RMK AO2 T00481056
KMDD 130435Z AUTO 25005KT 10SM CLR 05/M05 A3026 RMK AO2 T00491055
KMDD 130415Z AUTO 25005KT 10SM CLR 06/M06 A3026 RMK AO2 T00591060
KMDD 130355Z AUTO 25005KT 10SM CLR 06/M06 A3027 RMK AO2 T00571056
KMDD 130335Z AUTO 25005KT 10SM CLR 06/M06 A3028 RMK AO2 T00591057
KMDD 130310Z AUTO 25004KT 10SM CLR 07/M06 A3029 RMK AO2 T00651059
KMDD 130255Z AUTO 26004KT 10SM CLR 07/M06 A3029 RMK AO2 T00701060
KMDD 130235Z AUTO 25005KT 10SM CLR 07/M06 A3030 RMK AO2 T00701057
KMDD 130215Z AUTO 25005KT 10SM CLR 08/M06 A3029 RMK AO2 T00821065
KMDD 130155Z AUTO 24005KT 10SM CLR 08/M06 A3030 RMK AO2 T00841062
KMDD 130135Z AUTO 25005KT 10SM CLR 10/M07 A3031 RMK AO2 T00971070
KMDD 130115Z AUTO 24005KT 10SM CLR 11/M07 A3031 RMK AO2 T01061073
KMDD 130055Z AUTO 23003KT 10SM CLR 12/M07 A3031 RMK AO2 T01161075
KMDD 130035Z AUTO 22004KT 10SM CLR 12/M08 A3031 RMK AO2 T01231076
KMDD 130015Z AUTO 23004KT 10SM CLR 13/M08 A3031 RMK AO2 T01281082
KMDD 122355Z AUTO 23003KT 10SM CLR 13/M08 A3031 RMK AO2 T01291079 10151 20105
KMDD 122335Z AUTO 24003KT 10SM CLR 13/M08 A3032 RMK AO2 T01331081
KMDD 122315Z AUTO 26003KT 10SM CLR 14/M09 A3032 RMK AO2 T01441087
KMDD 122255Z AUTO 25003KT 10SM CLR 15/M09 A3033 RMK AO2 T01501092
KMDD 122235Z AUTO 25004KT 10SM CLR 15/M09 A3033 RMK AO2 T01501094
KMDD 122215Z AUTO 28006KT 10SM CLR 15/M09 A3034 RMK AO2 T01511095